createdAt,value
2019-05-19T00:01:10.275Z,12.85
2019-05-19T00:03:38.647Z,12.84
2019-05-19T00:06:07.033Z,12.82
2019-05-19T00:08:37.147Z,12.77
2019-05-19T00:11:05.524Z,12.73
2019-05-19T00:13:36.993Z,12.71
2019-05-19T00:16:05.373Z,12.67
2019-05-19T00:18:33.789Z,12.64
2019-05-19T00:21:02.215Z,12.65
2019-05-19T00:23:32.099Z,12.64
2019-05-19T00:26:02.074Z,12.60
2019-05-19T00:28:30.485Z,12.59
2019-05-19T00:30:58.850Z,12.58
2019-05-19T00:33:27.383Z,12.58
2019-05-19T00:35:55.751Z,12.57
2019-05-19T00:38:24.170Z,12.56
2019-05-19T00:40:52.537Z,12.54
2019-05-19T00:43:21.110Z,12.50
2019-05-19T00:45:49.490Z,12.46
2019-05-19T00:48:19.480Z,12.44
2019-05-19T00:50:47.899Z,12.39
2019-05-19T00:53:17.788Z,12.36
2019-05-19T00:55:46.251Z,12.34
2019-05-19T00:58:15.088Z,12.32
2019-05-19T01:00:43.568Z,12.18
2019-05-19T01:03:11.927Z,12.29
2019-05-19T01:05:40.311Z,12.29
2019-05-19T01:08:08.712Z,12.33
2019-05-19T01:10:38.673Z,12.37
2019-05-19T01:13:07.048Z,12.38
2019-05-19T01:15:35.428Z,12.42
2019-05-19T01:18:04.615Z,12.43
2019-05-19T01:20:35.830Z,12.42
2019-05-19T01:23:04.364Z,12.48
2019-05-19T01:25:32.725Z,12.48
2019-05-19T01:28:01.133Z,12.48
2019-05-19T01:30:29.569Z,12.47
2019-05-19T01:32:57.955Z,12.44
2019-05-19T01:35:26.341Z,12.42
2019-05-19T01:37:54.754Z,12.39
2019-05-19T01:40:23.121Z,12.35
2019-05-19T01:42:51.509Z,12.30
2019-05-19T01:45:20.060Z,12.28
2019-05-19T01:47:48.452Z,12.27
2019-05-19T01:50:18.574Z,12.26
2019-05-19T01:52:49.956Z,12.28
2019-05-19T01:55:18.522Z,12.29
2019-05-19T01:57:46.895Z,12.32
2019-05-19T02:00:15.615Z,12.36
2019-05-19T02:02:44.232Z,12.38
2019-05-19T02:05:12.756Z,12.41
2019-05-19T02:07:41.281Z,12.41
2019-05-19T02:10:10.496Z,12.41
2019-05-19T02:12:38.935Z,12.40
2019-05-19T02:15:08.455Z,12.45
2019-05-19T02:17:40.419Z,12.48
2019-05-19T02:20:09.431Z,12.51
2019-05-19T02:22:39.372Z,12.46
2019-05-19T02:25:08.576Z,12.43
2019-05-19T02:27:36.994Z,12.38
2019-05-19T02:30:10.762Z,12.33
2019-05-19T02:32:39.211Z,12.30
2019-05-19T02:35:08.218Z,12.24
2019-05-19T02:37:36.619Z,12.20
2019-05-19T02:40:09.506Z,12.17
2019-05-19T02:42:40.975Z,12.15
2019-05-19T02:45:10.879Z,12.14
2019-05-19T02:47:42.358Z,12.15
2019-05-19T02:50:11.767Z,12.17
2019-05-19T02:52:43.319Z,12.18
2019-05-19T02:55:11.856Z,12.18
2019-05-19T02:57:42.191Z,12.18
2019-05-19T03:00:11.500Z,12.18
2019-05-19T03:02:39.882Z,12.21
2019-05-19T03:05:08.462Z,12.20
2019-05-19T03:07:38.396Z,12.21
2019-05-19T03:10:07.303Z,12.20
2019-05-19T03:12:38.144Z,12.20
2019-05-19T03:15:07.362Z,12.18
2019-05-19T03:17:35.751Z,12.19
2019-05-19T03:20:06.373Z,12.19
2019-05-19T03:22:34.739Z,12.20
2019-05-19T03:25:03.868Z,12.20
2019-05-19T03:27:32.407Z,12.20
2019-05-19T03:30:06.096Z,12.20
2019-05-19T03:32:41.749Z,12.20
2019-05-19T03:35:10.283Z,12.21
2019-05-19T03:37:38.741Z,12.23
2019-05-19T03:40:08.863Z,12.20
2019-05-19T03:42:37.407Z,12.28
2019-05-19T03:45:06.443Z,12.32
2019-05-19T03:47:34.999Z,12.33
2019-05-19T03:50:06.440Z,12.37
2019-05-19T03:52:36.277Z,12.26
2019-05-19T03:55:06.332Z,12.40
2019-05-19T03:57:34.939Z,12.43
2019-05-19T04:00:06.418Z,12.45
2019-05-19T04:02:34.799Z,12.42
2019-05-19T04:05:04.373Z,12.45
2019-05-19T04:07:32.849Z,12.46
2019-05-19T04:10:01.229Z,12.51
2019-05-19T04:12:29.697Z,12.52
2019-05-19T04:14:58.090Z,12.54
2019-05-19T04:17:26.474Z,12.55
2019-05-19T04:19:54.880Z,12.60
2019-05-19T04:22:23.261Z,12.65
2019-05-19T04:24:53.170Z,12.68
2019-05-19T04:27:21.535Z,12.71
2019-05-19T04:29:49.936Z,12.77
2019-05-19T04:32:18.337Z,12.83
2019-05-19T04:34:46.731Z,12.93
2019-05-19T04:37:15.129Z,13.00
2019-05-19T04:39:43.527Z,13.09
2019-05-19T04:42:11.914Z,13.14
2019-05-19T04:44:40.311Z,13.21
2019-05-19T04:47:10.468Z,13.26
2019-05-19T04:49:38.848Z,13.29
2019-05-19T04:52:07.608Z,13.32
2019-05-19T04:54:36.407Z,13.36
2019-05-19T04:57:06.316Z,13.37
2019-05-19T04:59:34.772Z,13.39
2019-05-19T05:02:04.197Z,13.47
2019-05-19T05:04:32.851Z,13.57
2019-05-19T05:07:01.346Z,13.80
2019-05-19T05:09:29.787Z,13.95
2019-05-19T05:11:59.690Z,14.06
2019-05-19T05:14:28.165Z,14.17
2019-05-19T05:16:56.543Z,14.22
2019-05-19T05:19:24.932Z,14.25
2019-05-19T05:21:53.347Z,14.30
2019-05-19T05:24:21.715Z,14.36
2019-05-19T05:26:50.797Z,14.36
2019-05-19T05:29:19.341Z,14.37
2019-05-19T05:31:47.836Z,14.42
2019-05-19T05:34:16.203Z,14.44
2019-05-19T05:36:44.738Z,14.45
2019-05-19T05:39:13.111Z,14.46
2019-05-19T05:41:43.214Z,14.44
2019-05-19T05:44:11.586Z,14.44
2019-05-19T05:46:39.986Z,14.45
2019-05-19T05:49:08.374Z,14.49
2019-05-19T05:51:38.312Z,14.52
2019-05-19T05:54:06.694Z,14.54
2019-05-19T05:56:35.107Z,14.62
2019-05-19T05:59:05.796Z,14.75
2019-05-19T06:01:35.707Z,14.77
2019-05-19T06:04:04.186Z,15.15
2019-05-19T06:06:32.622Z,15.36
2019-05-19T06:09:01.005Z,15.52
2019-05-19T06:11:29.423Z,15.72
2019-05-19T06:13:57.802Z,15.91
2019-05-19T06:16:26.184Z,16.11
2019-05-19T06:18:56.777Z,16.20
2019-05-19T06:21:24.819Z,16.32
2019-05-19T06:23:53.210Z,16.41
2019-05-19T06:26:21.655Z,16.42
2019-05-19T06:28:51.740Z,16.40
2019-05-19T06:31:20.156Z,16.42
2019-05-19T06:33:48.542Z,16.40
2019-05-19T06:36:17.148Z,16.38
2019-05-19T06:38:45.623Z,16.44
2019-05-19T06:41:14.135Z,16.60
2019-05-19T06:43:44.129Z,16.74
2019-05-19T06:46:12.503Z,16.82
2019-05-19T06:48:40.953Z,16.87
2019-05-19T06:51:09.330Z,16.98
2019-05-19T06:53:37.757Z,17.12
2019-05-19T06:56:06.137Z,17.21
2019-05-19T06:58:34.606Z,17.40
2019-05-19T07:01:02.984Z,17.70
2019-05-19T07:03:34.431Z,17.97
2019-05-19T07:06:03.013Z,18.07
2019-05-19T07:08:31.449Z,18.07
2019-05-19T07:10:59.817Z,18.13
2019-05-19T07:13:28.434Z,18.21
2019-05-19T07:15:56.902Z,18.21
2019-05-19T07:18:25.282Z,18.25
2019-05-19T07:20:53.757Z,18.30
2019-05-19T07:23:28.212Z,18.35
2019-05-19T07:25:55.051Z,18.25
2019-05-19T07:28:23.424Z,18.26
2019-05-19T07:30:54.182Z,18.29
2019-05-19T07:33:22.524Z,18.41
2019-05-19T07:35:52.413Z,18.58
2019-05-19T07:38:20.787Z,18.82
2019-05-19T07:40:49.209Z,18.85
2019-05-19T07:43:17.648Z,18.80
2019-05-19T07:45:46.116Z,18.78
2019-05-19T07:48:17.390Z,18.79
2019-05-19T07:50:45.818Z,18.94
2019-05-19T07:53:14.187Z,19.09
2019-05-19T07:55:42.713Z,19.27
2019-05-19T07:58:11.886Z,19.36
2019-05-19T08:00:40.467Z,19.58
2019-05-19T08:03:08.838Z,19.85
2019-05-19T08:05:37.293Z,19.85
2019-05-19T08:08:05.681Z,19.88
2019-05-19T08:10:34.110Z,19.91
2019-05-19T08:13:02.466Z,20.23
2019-05-19T08:15:30.855Z,20.18
2019-05-19T08:17:59.466Z,20.26
2019-05-19T08:20:27.925Z,20.26
2019-05-19T08:22:56.299Z,20.25
2019-05-19T08:25:24.745Z,20.30
2019-05-19T08:27:53.209Z,20.27
2019-05-19T08:30:22.099Z,20.27
2019-05-19T08:32:50.820Z,20.37
2019-05-19T08:35:19.336Z,20.42
2019-05-19T08:37:47.779Z,20.67
2019-05-19T08:40:16.316Z,21.01
2019-05-19T08:42:45.369Z,21.05
2019-05-19T08:45:14.337Z,20.93
2019-05-19T08:47:42.733Z,20.70
2019-05-19T08:50:11.410Z,20.82
2019-05-19T08:52:41.302Z,20.83
2019-05-19T08:55:10.072Z,20.70
2019-05-19T08:57:38.450Z,20.44
2019-05-19T09:00:07.272Z,20.07
2019-05-19T09:02:35.670Z,19.75
2019-05-19T09:05:06.670Z,19.68
2019-05-19T09:07:35.252Z,19.90
2019-05-19T09:10:07.376Z,20.77
2019-05-19T09:12:35.761Z,21.37
2019-05-19T09:15:06.674Z,21.40
2019-05-19T09:17:35.293Z,21.95
2019-05-19T09:20:05.646Z,22.34
2019-05-19T09:22:36.887Z,22.19
2019-05-19T09:25:07.081Z,22.16
2019-05-19T09:27:37.190Z,22.46
2019-05-19T09:30:09.611Z,22.55
2019-05-19T09:32:37.954Z,22.65
2019-05-19T09:35:07.940Z,22.70
2019-05-19T09:37:36.396Z,22.79
2019-05-19T09:40:10.130Z,22.87
2019-05-19T09:42:38.725Z,23.23
2019-05-19T09:45:08.486Z,23.31
2019-05-19T09:47:37.870Z,23.39
2019-05-19T09:50:07.667Z,23.61
2019-05-19T09:52:36.095Z,23.52
2019-05-19T09:55:06.586Z,23.24
2019-05-19T09:57:34.983Z,23.22
2019-05-19T10:00:06.586Z,23.79
2019-05-19T10:02:35.041Z,23.89
2019-05-19T10:05:06.625Z,24.34
2019-05-19T10:07:35.087Z,24.20
2019-05-19T10:10:13.656Z,24.24
2019-05-19T10:12:42.066Z,23.93
2019-05-19T10:15:12.996Z,23.80
2019-05-19T10:17:41.398Z,23.69
2019-05-19T10:20:10.517Z,23.59
2019-05-19T10:22:39.139Z,23.69
2019-05-19T10:25:21.717Z,24.07
2019-05-19T10:27:41.400Z,24.09
2019-05-19T10:30:10.402Z,23.75
2019-05-19T10:32:38.973Z,23.43
2019-05-19T10:35:08.258Z,23.54
2019-05-19T10:37:36.800Z,23.45
2019-05-19T10:40:06.396Z,23.84
2019-05-19T10:42:35.009Z,24.21
2019-05-19T10:45:07.407Z,24.60
2019-05-19T10:47:37.031Z,24.46
2019-05-19T10:50:07.111Z,24.08
2019-05-19T10:52:38.231Z,24.40
2019-05-19T10:55:07.052Z,24.57
2019-05-19T10:57:35.462Z,24.56
2019-05-19T11:00:07.714Z,24.96
2019-05-19T11:02:36.216Z,24.92
2019-05-19T11:05:06.442Z,24.87
2019-05-19T11:07:35.994Z,24.62
2019-05-19T11:10:08.246Z,24.68
2019-05-19T11:12:36.899Z,24.87
2019-05-19T11:15:09.514Z,24.89
2019-05-19T11:17:38.003Z,24.93
2019-05-19T11:20:06.736Z,24.96
2019-05-19T11:22:35.117Z,24.99
2019-05-19T11:25:05.576Z,25.00
2019-05-19T11:27:33.940Z,24.27
2019-05-19T11:30:02.333Z,24.01
2019-05-19T11:32:30.711Z,23.91
2019-05-19T11:34:59.111Z,23.70
2019-05-19T11:37:27.692Z,23.32
2019-05-19T11:39:56.187Z,23.07
2019-05-19T11:42:25.989Z,23.09
2019-05-19T11:44:55.943Z,23.35
2019-05-19T11:47:24.399Z,23.69
2019-05-19T11:49:57.512Z,23.76
2019-05-19T11:52:27.342Z,23.96
2019-05-19T11:54:55.872Z,24.50
2019-05-19T11:57:24.231Z,24.88
2019-05-19T11:59:52.629Z,25.05
2019-05-19T12:02:21.048Z,25.05
2019-05-19T12:04:50.995Z,25.23
2019-05-19T12:07:19.346Z,25.43
2019-05-19T12:09:47.785Z,25.54
2019-05-19T12:12:16.156Z,25.68
2019-05-19T12:14:44.549Z,25.88
2019-05-19T12:33:35.113Z,26.08
2019-05-19T12:36:05.095Z,26.14
2019-05-19T12:38:33.979Z,26.22
2019-05-19T12:41:02.456Z,26.33
2019-05-19T12:43:30.824Z,26.52
2019-05-19T12:46:00.819Z,26.64
2019-05-19T12:48:29.313Z,26.43
2019-05-19T12:50:57.701Z,26.60
2019-05-19T12:53:26.119Z,26.47
2019-05-19T12:55:54.733Z,26.04
2019-05-19T12:58:23.087Z,25.71
2019-05-19T13:00:51.488Z,25.68
2019-05-19T13:03:20.636Z,26.00
2019-05-19T13:05:56.343Z,26.41
2019-05-19T13:08:24.685Z,26.32
2019-05-19T13:10:53.081Z,25.98
2019-05-19T13:13:21.634Z,25.31
2019-05-19T13:15:50.139Z,25.31
2019-05-19T13:18:18.513Z,25.04
2019-05-19T13:20:46.888Z,25.37
2019-05-19T13:23:15.366Z,25.65
2019-05-19T13:25:45.183Z,25.39
2019-05-19T13:28:13.600Z,25.22
2019-05-19T13:30:43.720Z,25.41
2019-05-19T13:33:12.565Z,25.30
2019-05-19T13:35:40.937Z,25.59
2019-05-19T13:38:09.528Z,25.61
2019-05-19T13:40:37.904Z,25.37
2019-05-19T13:43:07.580Z,25.42
2019-05-19T13:45:36.073Z,25.47
2019-05-19T13:48:04.473Z,25.65
2019-05-19T13:50:32.859Z,25.80
2019-05-19T13:53:01.255Z,25.93
2019-05-19T13:55:29.610Z,25.62
2019-05-19T13:57:58.077Z,25.20
2019-05-19T14:00:26.538Z,25.12
2019-05-19T14:02:54.933Z,25.40
2019-05-19T14:05:23.330Z,25.77
2019-05-19T14:07:52.101Z,25.58
2019-05-19T14:10:20.623Z,25.28
2019-05-19T14:12:50.598Z,25.18
2019-05-19T14:15:20.603Z,25.30
2019-05-19T14:17:49.018Z,25.50
2019-05-19T14:20:17.569Z,25.29
2019-05-19T14:22:45.999Z,25.18
2019-05-19T14:25:14.630Z,25.23
2019-05-19T14:27:43.292Z,25.24
2019-05-19T14:30:12.109Z,25.35
2019-05-19T14:32:40.565Z,25.52
2019-05-19T14:35:09.446Z,25.56
2019-05-19T14:37:39.240Z,25.73
2019-05-19T14:40:09.594Z,25.68
2019-05-19T14:42:42.489Z,25.46
2019-05-19T14:45:12.069Z,25.43
2019-05-19T14:47:40.663Z,25.44
2019-05-19T14:50:11.348Z,25.50
2019-05-19T14:52:42.903Z,25.58
2019-05-19T14:55:11.444Z,25.53
2019-05-19T14:57:44.882Z,25.39
2019-05-19T15:00:11.307Z,25.11
2019-05-19T15:02:39.959Z,24.89
2019-05-19T15:05:08.582Z,24.76
2019-05-19T15:07:36.982Z,24.57
2019-05-19T15:10:07.181Z,24.63
2019-05-19T15:12:35.533Z,24.64
2019-05-19T15:15:06.584Z,24.43
2019-05-19T15:17:37.099Z,24.24
2019-05-19T15:20:07.034Z,24.21
2019-05-19T15:22:35.418Z,24.16
2019-05-19T15:25:05.261Z,24.24
2019-05-19T15:27:35.290Z,24.34
2019-05-19T15:30:13.282Z,24.51
2019-05-19T15:32:38.476Z,24.49
2019-05-19T15:35:07.598Z,24.70
2019-05-19T15:37:35.975Z,24.70
2019-05-19T15:40:09.975Z,24.70
2019-05-19T15:42:38.396Z,24.64
2019-05-19T15:45:07.314Z,24.56
2019-05-19T15:47:35.696Z,24.47
2019-05-19T15:50:12.854Z,24.32
2019-05-19T15:52:43.396Z,24.11
2019-05-19T15:55:13.086Z,24.17
2019-05-19T15:57:41.456Z,24.13
2019-05-19T16:00:11.203Z,24.13
2019-05-19T16:02:39.687Z,24.12
2019-05-19T16:05:09.138Z,24.13
2019-05-19T16:07:37.563Z,24.17
2019-05-19T16:10:08.355Z,24.21
2019-05-19T16:12:36.817Z,24.19
2019-05-19T16:15:06.950Z,24.14
2019-05-19T16:17:36.836Z,24.16
2019-05-19T16:20:09.349Z,24.17
2019-05-19T16:22:37.993Z,24.15
2019-05-19T16:25:07.519Z,24.10
2019-05-19T16:27:35.895Z,24.05
2019-05-19T16:30:10.375Z,23.99
2019-05-19T16:32:40.325Z,23.94
2019-05-19T16:35:09.009Z,23.87
2019-05-19T16:37:37.456Z,23.80
2019-05-19T16:40:06.838Z,23.76
2019-05-19T16:42:35.213Z,23.72
2019-05-19T16:45:06.935Z,23.60
2019-05-19T16:47:35.319Z,23.50
2019-05-19T16:50:05.687Z,23.44
2019-05-19T16:52:34.135Z,23.14
2019-05-19T16:55:20.041Z,23.36
2019-05-19T16:57:50.030Z,23.32
2019-05-19T17:00:20.149Z,23.26
2019-05-19T17:02:48.534Z,23.25
2019-05-19T17:05:17.253Z,23.26
2019-05-19T17:07:45.719Z,23.25
2019-05-19T17:10:14.843Z,23.23
2019-05-19T17:12:47.101Z,23.23
2019-05-19T17:15:16.857Z,23.17
2019-05-19T17:17:45.227Z,23.13
2019-05-19T17:20:15.520Z,23.03
2019-05-19T17:22:45.641Z,23.04
2019-05-19T17:25:14.365Z,23.02
2019-05-19T17:27:42.751Z,23.04
2019-05-19T17:30:13.019Z,23.06
2019-05-19T17:32:41.392Z,23.07
2019-05-19T17:35:11.110Z,23.07
2019-05-19T17:37:42.509Z,23.10
2019-05-19T17:40:11.414Z,23.12
2019-05-19T17:42:39.932Z,23.15
2019-05-19T17:45:09.079Z,23.18
2019-05-19T17:47:37.530Z,23.17
2019-05-19T17:50:07.376Z,23.19
2019-05-19T17:52:35.758Z,23.23
2019-05-19T17:55:06.135Z,23.23
2019-05-19T17:57:35.421Z,23.23
2019-05-19T18:00:06.230Z,23.23
2019-05-19T18:02:34.622Z,23.15
2019-05-19T18:05:02.997Z,22.92
2019-05-19T18:07:31.694Z,22.94
2019-05-19T18:10:00.154Z,22.79
2019-05-19T18:12:28.544Z,22.66
2019-05-19T18:14:56.919Z,22.52
2019-05-19T18:17:25.608Z,22.42
2019-05-19T18:19:54.164Z,22.31
2019-05-19T18:22:22.530Z,22.20
2019-05-19T18:24:50.954Z,22.12
2019-05-19T18:27:19.330Z,22.05
2019-05-19T18:29:47.735Z,21.97
2019-05-19T18:32:16.310Z,21.92
2019-05-19T18:34:44.881Z,21.86
2019-05-19T18:37:13.605Z,21.81
2019-05-19T18:39:42.877Z,21.75
2019-05-19T18:42:11.264Z,21.66
2019-05-19T18:44:39.636Z,21.56
2019-05-19T18:47:08.026Z,21.46
2019-05-19T18:49:36.396Z,21.37
2019-05-19T18:52:05.060Z,21.28
2019-05-19T18:54:33.539Z,21.11
2019-05-19T18:57:01.917Z,21.11
2019-05-19T18:59:30.302Z,21.02
2019-05-19T19:01:59.787Z,20.92
2019-05-19T19:04:29.707Z,20.84
2019-05-19T19:06:59.464Z,20.73
2019-05-19T19:09:27.884Z,20.66
2019-05-19T19:11:56.355Z,20.61
2019-05-19T19:14:27.611Z,20.55
2019-05-19T19:16:55.025Z,20.46
2019-05-19T19:19:23.407Z,20.35
2019-05-19T19:21:52.569Z,20.26
2019-05-19T19:24:22.650Z,20.16
2019-05-19T19:26:53.385Z,20.03
2019-05-19T19:29:21.984Z,19.91
2019-05-19T19:31:52.267Z,19.80
2019-05-19T19:34:20.619Z,19.69
2019-05-19T19:36:49.506Z,19.59
2019-05-19T19:39:18.080Z,19.50
2019-05-19T19:41:46.460Z,19.43
2019-05-19T19:44:15.168Z,19.34
2019-05-19T19:46:45.135Z,19.28
2019-05-19T19:49:13.733Z,19.20
2019-05-19T19:51:42.967Z,19.12
2019-05-19T19:54:11.341Z,19.03
2019-05-19T19:56:39.759Z,18.98
2019-05-19T19:59:08.181Z,18.90
2019-05-19T20:01:37.515Z,18.80
2019-05-19T20:04:05.907Z,18.70
2019-05-19T20:06:34.329Z,18.62
2019-05-19T20:09:05.742Z,18.52
2019-05-19T20:11:34.235Z,18.44
2019-05-19T20:14:02.665Z,18.35
2019-05-19T20:16:31.055Z,18.28
2019-05-19T20:18:59.590Z,18.25
2019-05-19T20:21:29.629Z,18.18
2019-05-19T20:23:58.012Z,18.08
2019-05-19T20:26:26.425Z,17.99
2019-05-19T20:28:54.861Z,17.89
2019-05-19T20:31:23.293Z,17.76
2019-05-19T20:33:51.765Z,17.60
2019-05-19T20:36:20.354Z,17.45
2019-05-19T20:38:48.808Z,17.27
2019-05-19T20:41:17.362Z,17.11
2019-05-19T20:43:48.307Z,16.97
2019-05-19T20:46:17.434Z,16.86
2019-05-19T20:48:45.904Z,16.89
2019-05-19T20:51:14.286Z,16.93
2019-05-19T20:53:42.702Z,16.95
2019-05-19T20:56:11.080Z,16.97
2019-05-19T20:58:39.483Z,17.01
2019-05-19T21:01:07.877Z,17.03
2019-05-19T21:03:36.416Z,17.07
2019-05-19T21:06:05.118Z,17.07
2019-05-19T21:08:33.464Z,17.07
2019-05-19T21:11:01.925Z,17.07
2019-05-19T21:13:30.492Z,17.07
2019-05-19T21:15:58.891Z,17.06
2019-05-19T21:18:27.266Z,17.03
2019-05-19T21:20:55.695Z,17.02
2019-05-19T21:23:24.841Z,17.01
2019-05-19T21:25:54.718Z,17.03
2019-05-19T21:28:23.106Z,17.03
2019-05-19T21:31:04.865Z,17.02
2019-05-19T21:33:21.626Z,17.00
2019-05-19T21:35:51.675Z,16.99
2019-05-19T21:38:20.041Z,16.99
2019-05-19T21:40:48.428Z,16.99
2019-05-19T21:43:18.334Z,16.97
2019-05-19T21:45:48.262Z,16.97
2019-05-19T21:48:18.428Z,16.94
2019-05-19T21:50:46.863Z,16.93
2019-05-19T21:53:16.761Z,16.81
2019-05-19T21:55:45.144Z,16.81
2019-05-19T21:58:13.522Z,16.77
2019-05-19T22:00:42.188Z,16.73
2019-05-19T22:03:10.586Z,16.69
2019-05-19T22:05:52.498Z,16.64
2019-05-19T22:08:10.814Z,16.60
2019-05-19T22:10:39.312Z,16.52
2019-05-19T22:13:07.931Z,16.43
2019-05-19T22:15:36.323Z,16.35
2019-05-19T22:18:04.699Z,16.33
2019-05-19T22:20:33.188Z,16.36
2019-05-19T22:23:01.587Z,16.38
2019-05-19T22:25:30.053Z,16.34
2019-05-19T22:27:58.436Z,16.31
2019-05-19T22:30:26.849Z,16.25
2019-05-19T22:32:55.245Z,16.18
2019-05-19T22:35:23.673Z,16.12
2019-05-19T22:37:53.567Z,16.04
2019-05-19T22:40:22.154Z,15.96
2019-05-19T22:42:50.529Z,15.88
2019-05-19T22:45:20.559Z,15.87
2019-05-19T22:47:50.993Z,15.85
2019-05-19T22:50:19.515Z,15.79
2019-05-19T22:52:47.901Z,15.74
2019-05-19T22:55:18.385Z,15.71
2019-05-19T22:57:46.798Z,15.72
2019-05-19T23:00:15.929Z,15.73
2019-05-19T23:02:47.118Z,15.74
2019-05-19T23:05:16.143Z,15.72
2019-05-19T23:07:44.651Z,15.68
2019-05-19T23:10:14.702Z,15.62
2019-05-19T23:12:43.103Z,15.60
2019-05-19T23:15:11.676Z,15.55
2019-05-19T23:17:41.635Z,15.51
2019-05-19T23:20:11.681Z,15.46
2019-05-19T23:22:43.158Z,15.40
2019-05-19T23:25:12.899Z,15.36
2019-05-19T23:27:42.592Z,15.31
2019-05-19T23:30:12.401Z,15.24
2019-05-19T23:32:40.930Z,15.17
2019-05-19T23:35:09.430Z,15.11
2019-05-19T23:37:37.844Z,15.03
2019-05-19T23:40:07.763Z,14.97
2019-05-19T23:42:36.423Z,14.89
2019-05-19T23:45:07.010Z,14.82
2019-05-19T23:47:35.481Z,14.78
2019-05-19T23:50:05.820Z,14.74
2019-05-19T23:52:34.414Z,14.54
2019-05-19T23:55:03.189Z,14.67
2019-05-19T23:57:31.556Z,14.63
2019-05-19T23:59:59.929Z,14.61
